createdAt,value
2023-02-15T00:02:04.350Z,2.32
2023-02-15T00:04:45.815Z,2.26
2023-02-15T00:07:15.597Z,2.15
2023-02-15T00:09:43.081Z,2.21
2023-02-15T00:12:11.528Z,2.34
2023-02-15T00:14:39.047Z,2.46
2023-02-15T00:17:06.529Z,2.22
2023-02-15T00:19:34.050Z,2.23
2023-02-15T00:22:01.524Z,2.12
2023-02-15T00:24:30.399Z,2.36
2023-02-15T00:26:57.842Z,2.45
2023-02-15T00:29:25.308Z,2.23
2023-02-15T00:31:53.364Z,2.11
2023-02-15T00:34:22.755Z,2.28
2023-02-15T00:36:50.391Z,2.24
2023-02-15T00:39:18.830Z,2.51
2023-02-15T00:41:48.225Z,2.39
2023-02-15T00:44:16.379Z,1.88
2023-02-15T00:46:44.235Z,2.07
2023-02-15T00:49:12.275Z,2.23
2023-02-15T00:51:40.293Z,2.18
2023-02-15T00:54:07.926Z,2.02
2023-02-15T00:56:35.467Z,2.38
2023-02-15T00:59:04.471Z,2.59
2023-02-15T01:01:32.139Z,2.61
2023-02-15T01:03:59.805Z,2.63
2023-02-15T01:06:27.269Z,2.31
2023-02-15T01:08:54.766Z,2.14
2023-02-15T01:11:23.729Z,2.23
2023-02-15T01:13:52.249Z,2.27
2023-02-15T01:16:21.634Z,2.13
2023-02-15T01:18:49.734Z,2.30
2023-02-15T01:21:18.949Z,2.10
2023-02-15T01:23:46.982Z,2.13
2023-02-15T01:26:15.019Z,2.21
2023-02-15T01:28:42.702Z,2.00
2023-02-15T01:31:11.267Z,2.00
2023-02-15T01:33:40.532Z,2.03
2023-02-15T01:36:08.365Z,1.96
2023-02-15T01:38:36.894Z,1.92
2023-02-15T01:41:24.126Z,1.85
2023-02-15T01:43:54.093Z,1.78
2023-02-15T01:46:25.131Z,2.03
2023-02-15T01:48:57.710Z,1.91
2023-02-15T01:51:26.504Z,2.04
2023-02-15T01:53:56.177Z,2.15
2023-02-15T01:56:25.948Z,2.09
2023-02-15T01:58:56.097Z,2.15
2023-02-15T02:01:23.736Z,2.21
2023-02-15T02:03:58.620Z,2.11
2023-02-15T02:06:26.521Z,2.18
2023-02-15T02:08:55.270Z,2.13
2023-02-15T02:11:22.966Z,2.13
2023-02-15T02:13:51.822Z,2.03
2023-02-15T02:16:23.044Z,2.27
2023-02-15T02:19:00.783Z,2.07
2023-02-15T02:21:51.395Z,2.20
2023-02-15T02:24:55.096Z,2.18
2023-02-15T02:27:31.908Z,2.32
2023-02-15T02:30:12.748Z,2.32
2023-02-15T02:32:55.870Z,1.95
2023-02-15T02:35:28.386Z,1.66
2023-02-15T02:38:03.573Z,1.63
2023-02-15T02:40:37.987Z,1.52
2023-02-15T02:43:10.181Z,1.70
2023-02-15T02:45:41.955Z,1.86
2023-02-15T02:48:14.504Z,1.76
2023-02-15T02:50:42.814Z,1.60
2023-02-15T02:53:11.476Z,1.57
2023-02-15T02:55:42.253Z,1.60
2023-02-15T02:58:12.738Z,1.68
2023-02-15T03:00:42.442Z,1.67
2023-02-15T03:03:15.929Z,1.62
2023-02-15T03:05:46.461Z,1.66
2023-02-15T03:08:14.469Z,1.84
2023-02-15T03:10:42.722Z,2.05
2023-02-15T03:13:10.864Z,1.95
2023-02-15T03:15:58.121Z,1.84
2023-02-15T03:18:30.434Z,1.67
2023-02-15T03:20:58.544Z,1.58
2023-02-15T03:23:27.693Z,1.57
2023-02-15T03:25:58.713Z,1.61
2023-02-15T03:28:29.641Z,1.62
2023-02-15T03:30:59.352Z,1.85
2023-02-15T03:33:28.739Z,1.71
2023-02-15T03:36:00.694Z,1.89
2023-02-15T03:38:32.731Z,1.70
2023-02-15T03:41:13.653Z,1.52
2023-02-15T03:43:48.399Z,1.59
2023-02-15T03:46:21.924Z,1.55
2023-02-15T03:48:54.590Z,1.56
2023-02-15T03:51:37.432Z,1.50
2023-02-15T03:54:06.946Z,1.45
2023-02-15T03:56:36.033Z,1.40
2023-02-15T03:59:21.050Z,1.36
2023-02-15T04:02:01.766Z,1.43
2023-02-15T04:04:34.597Z,1.49
2023-02-15T04:07:02.475Z,1.55
2023-02-15T04:09:47.459Z,1.66
2023-02-15T04:12:15.032Z,1.61
2023-02-15T04:14:59.982Z,1.79
2023-02-15T04:17:27.430Z,1.98
2023-02-15T04:20:14.046Z,2.25
2023-02-15T04:22:59.417Z,1.90
2023-02-15T04:25:26.884Z,1.81
2023-02-15T04:27:56.129Z,2.16
2023-02-15T04:30:25.766Z,2.17
2023-02-15T04:32:53.491Z,2.30
2023-02-15T04:35:23.218Z,1.94
2023-02-15T04:37:50.750Z,1.94
2023-02-15T04:40:19.761Z,1.90
2023-02-15T04:42:49.402Z,2.17
2023-02-15T04:45:17.014Z,2.22
2023-02-15T04:47:44.515Z,2.11
2023-02-15T04:50:12.560Z,2.02
2023-02-15T04:52:41.416Z,1.95
2023-02-15T04:55:09.639Z,2.03
2023-02-15T04:57:37.158Z,2.13
2023-02-15T05:00:05.346Z,1.89
2023-02-15T05:02:32.828Z,1.81
2023-02-15T05:05:00.352Z,1.92
2023-02-15T05:07:27.859Z,1.81
2023-02-15T05:09:56.676Z,1.91
2023-02-15T05:12:24.206Z,2.17
2023-02-15T05:14:51.642Z,2.13
2023-02-15T05:17:19.120Z,1.82
2023-02-15T05:19:46.592Z,2.01
2023-02-15T05:22:14.074Z,2.10
2023-02-15T05:24:59.382Z,2.36
2023-02-15T05:27:45.958Z,2.20
2023-02-15T05:30:15.012Z,2.09
2023-02-15T05:32:42.629Z,2.15
2023-02-15T05:35:14.150Z,2.30
2023-02-15T05:37:41.653Z,2.37
2023-02-15T05:40:09.797Z,2.21
2023-02-15T05:42:38.669Z,2.14
2023-02-15T05:45:07.163Z,2.04
2023-02-15T05:47:35.205Z,2.11
2023-02-15T05:50:02.694Z,1.78
2023-02-15T05:52:30.200Z,1.81
2023-02-15T05:54:57.639Z,1.62
2023-02-15T05:57:25.088Z,1.59
2023-02-15T05:59:53.911Z,1.73
2023-02-15T06:02:21.458Z,1.66
2023-02-15T06:04:48.977Z,1.72
2023-02-15T06:07:16.432Z,1.53
2023-02-15T06:09:43.929Z,1.53
2023-02-15T06:12:11.474Z,1.55
2023-02-15T06:14:38.927Z,1.55
2023-02-15T06:17:07.827Z,1.65
2023-02-15T06:19:35.295Z,1.66
2023-02-15T06:22:02.982Z,1.61
2023-02-15T06:24:30.483Z,1.49
2023-02-15T06:26:57.995Z,1.49
2023-02-15T06:29:25.625Z,1.50
2023-02-15T06:31:53.175Z,1.63
2023-02-15T06:34:22.077Z,1.67
2023-02-15T06:36:49.584Z,1.65
2023-02-15T06:39:17.099Z,1.68
2023-02-15T06:41:44.615Z,1.64
2023-02-15T06:44:12.240Z,1.50
2023-02-15T06:46:39.787Z,1.48
2023-02-15T06:49:07.360Z,1.48
2023-02-15T06:51:36.179Z,1.45
2023-02-15T06:54:03.655Z,1.47
2023-02-15T06:56:31.766Z,1.45
2023-02-15T06:58:59.363Z,1.38
2023-02-15T07:01:26.888Z,1.35
2023-02-15T07:03:54.362Z,1.33
2023-02-15T07:06:21.810Z,1.26
2023-02-15T07:08:50.636Z,1.14
2023-02-15T07:11:35.738Z,1.11
2023-02-15T07:14:03.260Z,1.20
2023-02-15T07:16:31.217Z,1.07
2023-02-15T07:18:58.669Z,1.08
2023-02-15T07:21:26.128Z,1.14
2023-02-15T07:23:58.062Z,1.25
2023-02-15T07:26:25.563Z,1.56
2023-02-15T07:28:53.170Z,1.67
2023-02-15T07:31:20.861Z,1.63
2023-02-15T07:33:48.505Z,1.37
2023-02-15T07:36:15.986Z,1.27
2023-02-15T07:38:44.116Z,1.12
2023-02-15T07:41:14.988Z,1.19
2023-02-15T07:43:43.567Z,1.23
2023-02-15T07:46:13.292Z,1.25
2023-02-15T07:48:41.392Z,1.35
2023-02-15T07:51:14.885Z,1.24
2023-02-15T07:53:43.008Z,1.17
2023-02-15T07:56:14.210Z,0.98
2023-02-15T07:58:53.981Z,1.09
2023-02-15T08:01:22.932Z,1.06
2023-02-15T08:03:50.892Z,1.13
2023-02-15T08:06:18.617Z,0.96
2023-02-15T08:08:46.123Z,1.08
2023-02-15T08:11:34.678Z,1.13
2023-02-15T08:14:04.841Z,1.11
2023-02-15T08:16:34.548Z,0.76
2023-02-15T08:19:05.231Z,0.76
2023-02-15T08:21:33.112Z,0.92
2023-02-15T08:24:01.054Z,0.90
2023-02-15T08:26:30.833Z,0.96
2023-02-15T08:28:58.756Z,1.01
2023-02-15T08:31:26.432Z,1.21
2023-02-15T08:33:55.747Z,1.25
2023-02-15T08:36:24.986Z,1.25
2023-02-15T08:38:52.728Z,1.32
2023-02-15T08:41:21.812Z,1.24
2023-02-15T08:43:52.980Z,1.11
2023-02-15T08:46:20.770Z,1.11
2023-02-15T08:48:48.577Z,0.90
2023-02-15T08:51:17.694Z,0.80
2023-02-15T08:53:47.001Z,0.62
2023-02-15T08:56:14.485Z,0.70
2023-02-15T08:58:41.948Z,0.94
2023-02-15T09:01:18.796Z,1.07
2023-02-15T09:03:47.222Z,0.86
2023-02-15T09:06:15.610Z,0.90
2023-02-15T09:08:43.218Z,0.92
2023-02-15T09:11:11.996Z,0.72
2023-02-15T09:13:40.357Z,0.60
2023-02-15T09:16:09.447Z,0.66
2023-02-15T09:18:40.323Z,0.77
2023-02-15T09:21:10.339Z,1.12
2023-02-15T09:23:38.260Z,1.23
2023-02-15T09:26:07.958Z,1.03
2023-02-15T09:28:35.869Z,1.02
2023-02-15T09:31:10.881Z,1.05
2023-02-15T09:33:41.033Z,1.15
2023-02-15T09:36:17.050Z,0.96
2023-02-15T09:38:44.640Z,1.13
2023-02-15T09:41:26.705Z,1.11
2023-02-15T09:44:01.820Z,1.00
2023-02-15T09:46:46.481Z,0.87
2023-02-15T09:49:20.976Z,1.23
2023-02-15T09:52:14.255Z,1.45
2023-02-15T09:54:50.444Z,1.23
2023-02-15T09:57:22.803Z,1.39
2023-02-15T09:59:58.929Z,1.34
2023-02-15T10:02:38.575Z,1.23
2023-02-15T10:05:18.000Z,1.17
2023-02-15T10:08:00.758Z,1.33
2023-02-15T10:10:37.073Z,1.18
2023-02-15T10:13:17.263Z,1.18
2023-02-15T10:16:01.954Z,1.01
2023-02-15T10:18:38.945Z,1.16
2023-02-15T10:21:13.239Z,1.17
2023-02-15T10:23:51.536Z,1.03
2023-02-15T10:26:23.589Z,1.22
2023-02-15T10:28:52.373Z,1.27
2023-02-15T10:31:26.268Z,1.28
2023-02-15T10:34:11.040Z,1.35
2023-02-15T10:36:59.689Z,1.43
2023-02-15T10:39:30.888Z,1.27
2023-02-15T10:42:08.329Z,1.26
2023-02-15T10:44:45.303Z,1.57
2023-02-15T10:47:31.802Z,1.56
2023-02-15T10:50:16.094Z,1.30
2023-02-15T10:52:55.542Z,1.34
2023-02-15T10:55:35.743Z,1.57
2023-02-15T10:58:12.431Z,1.37
2023-02-15T11:00:43.968Z,1.49
2023-02-15T11:03:29.820Z,1.62
2023-02-15T11:06:03.379Z,1.62
2023-02-15T11:08:34.787Z,1.62
2023-02-15T11:11:06.310Z,1.82
2023-02-15T11:13:37.002Z,1.89
2023-02-15T11:16:07.344Z,1.88
2023-02-15T11:18:37.782Z,1.70
2023-02-15T11:21:09.777Z,1.77
2023-02-15T11:23:42.769Z,1.72
2023-02-15T11:26:15.299Z,1.74
2023-02-15T11:28:47.482Z,1.86
2023-02-15T11:31:18.388Z,1.89
2023-02-15T11:33:48.822Z,1.82
2023-02-15T11:36:19.082Z,1.87
2023-02-15T11:38:49.115Z,1.86
2023-02-15T11:41:20.047Z,1.65
2023-02-15T11:43:51.577Z,1.72
2023-02-15T11:46:20.559Z,1.79
2023-02-15T11:48:48.127Z,1.78
2023-02-15T11:51:17.647Z,1.92
2023-02-15T11:53:45.532Z,1.92
2023-02-15T11:56:18.931Z,1.98
2023-02-15T11:58:49.573Z,2.09
2023-02-15T12:01:19.554Z,2.13
2023-02-15T12:03:49.575Z,2.15
2023-02-15T12:06:25.562Z,2.11
2023-02-15T12:09:02.234Z,1.97
2023-02-15T12:11:35.851Z,1.98
2023-02-15T12:14:06.159Z,2.08
2023-02-15T12:16:39.012Z,2.30
2023-02-15T12:19:06.802Z,2.45
2023-02-15T12:21:36.514Z,2.26
2023-02-15T12:24:06.310Z,2.29
2023-02-15T12:26:37.002Z,2.26
2023-02-15T12:29:10.175Z,2.21
2023-02-15T12:31:41.343Z,2.34
2023-02-15T12:34:13.631Z,2.43
2023-02-15T12:36:45.398Z,2.58
2023-02-15T12:39:21.703Z,2.52
2023-02-15T12:42:04.482Z,2.49
2023-02-15T12:44:33.440Z,2.43
2023-02-15T12:47:03.551Z,2.73
2023-02-15T12:49:32.806Z,3.00
2023-02-15T12:52:02.829Z,3.07
2023-02-15T12:54:36.356Z,3.15
2023-02-15T12:57:27.473Z,3.35
2023-02-15T12:59:57.246Z,2.88
2023-02-15T13:02:28.170Z,3.08
2023-02-15T13:04:56.173Z,3.01
2023-02-15T13:07:27.274Z,3.05
2023-02-15T13:09:55.224Z,3.23
2023-02-15T13:12:27.326Z,3.04
2023-02-15T13:14:57.134Z,2.99
2023-02-15T13:17:30.276Z,2.84
2023-02-15T13:20:00.304Z,2.98
2023-02-15T13:22:30.524Z,2.71
2023-02-15T13:25:00.329Z,2.74
2023-02-15T13:27:36.946Z,2.83
2023-02-15T13:30:16.743Z,2.90
2023-02-15T13:32:44.443Z,2.84
2023-02-15T13:35:16.557Z,2.95
2023-02-15T13:38:02.122Z,2.79
2023-02-15T13:40:35.549Z,2.86
2023-02-15T13:43:07.993Z,2.99
2023-02-15T13:45:41.990Z,2.96
2023-02-15T13:48:17.108Z,3.09
2023-02-15T13:50:54.854Z,2.88
2023-02-15T13:53:43.189Z,2.78
2023-02-15T13:56:16.200Z,2.87
2023-02-15T13:59:14.489Z,2.80
2023-02-15T14:01:47.289Z,2.61
2023-02-15T14:04:43.524Z,2.81
2023-02-15T14:07:33.300Z,2.84
2023-02-15T14:10:13.894Z,2.93
2023-02-15T14:12:57.013Z,3.17
2023-02-15T14:15:30.573Z,3.13
2023-02-15T14:18:12.839Z,2.93
2023-02-15T14:20:51.008Z,2.85
2023-02-15T14:23:31.055Z,2.85
2023-02-15T14:26:02.640Z,2.93
2023-02-15T14:28:35.665Z,2.96
2023-02-15T14:31:05.512Z,2.95
2023-02-15T14:33:37.045Z,2.72
2023-02-15T14:36:07.411Z,2.75
2023-02-15T14:38:46.842Z,2.66
2023-02-15T14:41:18.665Z,2.80
2023-02-15T14:43:51.692Z,2.92
2023-02-15T14:46:25.652Z,2.85
2023-02-15T14:48:56.174Z,2.83
2023-02-15T14:51:59.699Z,2.97
2023-02-15T14:54:58.537Z,2.93
2023-02-15T14:57:28.743Z,2.93
2023-02-15T15:00:00.402Z,2.84
2023-02-15T15:02:30.508Z,2.82
2023-02-15T15:05:10.416Z,2.79
2023-02-15T15:07:40.859Z,2.75
2023-02-15T15:10:37.693Z,2.72
2023-02-15T15:13:38.971Z,2.68
2023-02-15T15:16:30.431Z,2.74
2023-02-15T15:18:58.700Z,2.80
2023-02-15T15:21:54.287Z,2.77
2023-02-15T15:24:56.301Z,2.87
2023-02-15T15:27:46.438Z,2.85
2023-02-15T15:30:51.969Z,2.90
2023-02-15T15:33:52.889Z,3.00
2023-02-15T15:36:37.645Z,3.18
2023-02-15T15:39:17.819Z,3.30
2023-02-15T15:41:50.714Z,3.03
2023-02-15T15:45:00.504Z,2.82
2023-02-15T15:47:36.994Z,2.95
2023-02-15T15:50:14.372Z,2.75
2023-02-15T15:52:44.671Z,2.70
2023-02-15T15:55:18.032Z,2.73
2023-02-15T15:57:46.904Z,2.70
2023-02-15T16:00:31.736Z,2.72
2023-02-15T16:02:59.377Z,2.63
2023-02-15T16:05:27.019Z,2.59
2023-02-15T16:07:54.620Z,2.62
2023-02-15T16:10:24.359Z,2.66
2023-02-15T16:12:52.465Z,2.57
2023-02-15T16:15:22.140Z,2.48
2023-02-15T16:17:54.647Z,2.55
2023-02-15T16:20:25.502Z,2.54
2023-02-15T16:22:58.193Z,2.56
2023-02-15T16:25:32.458Z,2.52
2023-02-15T16:28:08.328Z,2.52
2023-02-15T16:30:37.101Z,2.49
2023-02-15T16:33:08.757Z,2.55
2023-02-15T16:35:37.292Z,2.63
2023-02-15T16:38:05.341Z,2.38
2023-02-15T16:40:42.452Z,2.40
2023-02-15T16:43:16.246Z,2.53
2023-02-15T16:45:44.100Z,2.60
2023-02-15T16:48:17.207Z,2.48
2023-02-15T16:50:49.774Z,2.56
2023-02-15T16:53:20.461Z,2.37
2023-02-15T16:55:51.498Z,2.36
2023-02-15T16:58:21.498Z,2.36
2023-02-15T17:00:49.341Z,2.34
2023-02-15T17:03:29.114Z,2.38
2023-02-15T17:05:58.245Z,2.55
2023-02-15T17:08:33.212Z,2.67
2023-02-15T17:11:15.232Z,2.67
2023-02-15T17:14:15.325Z,2.44
2023-02-15T17:16:45.509Z,2.27
2023-02-15T17:19:18.498Z,2.31
2023-02-15T17:21:51.232Z,2.32
2023-02-15T17:24:22.352Z,2.26
2023-02-15T17:26:53.011Z,2.06
2023-02-15T17:29:25.798Z,2.10
2023-02-15T17:31:58.473Z,2.19
2023-02-15T17:35:03.920Z,2.10
2023-02-15T17:37:33.734Z,2.14
2023-02-15T17:40:09.519Z,2.15
2023-02-15T17:42:38.839Z,2.21
2023-02-15T17:45:06.695Z,2.25
2023-02-15T17:47:34.583Z,2.13
2023-02-15T17:50:05.799Z,2.24
2023-02-15T17:52:33.887Z,2.41
2023-02-15T17:55:21.213Z,2.32
2023-02-15T17:57:48.916Z,2.24
2023-02-15T18:00:36.867Z,2.31
2023-02-15T18:03:22.669Z,2.59
2023-02-15T18:06:09.249Z,2.32
2023-02-15T18:08:54.436Z,2.15
2023-02-15T18:11:40.481Z,1.98
2023-02-15T18:14:09.321Z,1.98
2023-02-15T18:16:40.725Z,1.97
2023-02-15T18:19:12.523Z,1.99
2023-02-15T18:21:41.423Z,1.98
2023-02-15T18:24:15.285Z,1.95
2023-02-15T18:26:42.778Z,2.05
2023-02-15T18:29:10.551Z,2.10
2023-02-15T18:31:38.347Z,2.30
2023-02-15T18:34:06.722Z,2.39
2023-02-15T18:36:38.309Z,2.17
2023-02-15T18:39:23.610Z,2.04
2023-02-15T18:41:51.097Z,1.91
2023-02-15T18:44:18.589Z,2.06
2023-02-15T18:46:46.077Z,1.96
2023-02-15T18:49:13.637Z,1.88
2023-02-15T18:51:43.786Z,1.90
2023-02-15T18:54:18.781Z,1.83
2023-02-15T18:56:48.467Z,1.81
2023-02-15T18:59:19.821Z,1.82
2023-02-15T19:01:49.755Z,2.02
2023-02-15T19:04:18.352Z,1.92
2023-02-15T19:06:51.059Z,1.94
2023-02-15T19:09:23.577Z,1.89
2023-02-15T19:11:56.115Z,1.95
2023-02-15T19:14:30.340Z,2.03
2023-02-15T19:16:59.512Z,2.20
2023-02-15T19:19:27.864Z,1.90
2023-02-15T19:21:55.955Z,1.85
2023-02-15T19:24:28.025Z,1.81
2023-02-15T19:26:57.917Z,1.89
2023-02-15T19:29:27.324Z,1.93
2023-02-15T19:31:55.045Z,1.89
2023-02-15T19:34:22.898Z,1.79
2023-02-15T19:36:52.520Z,1.82
2023-02-15T19:39:27.115Z,1.72
2023-02-15T19:41:54.828Z,1.65
2023-02-15T19:44:23.006Z,1.67
2023-02-15T19:46:50.601Z,1.77
2023-02-15T19:49:36.332Z,1.91
2023-02-15T19:52:04.436Z,1.85
2023-02-15T19:54:37.170Z,1.78
2023-02-15T19:57:09.585Z,1.77
2023-02-15T19:59:37.276Z,1.79
2023-02-15T20:02:05.783Z,2.03
2023-02-15T20:04:37.527Z,1.84
2023-02-15T20:07:08.172Z,1.94
2023-02-15T20:09:40.822Z,1.82
2023-02-15T20:12:17.510Z,1.72
2023-02-15T20:14:45.075Z,1.77
2023-02-15T20:17:13.228Z,1.91
2023-02-15T20:19:41.582Z,1.83
2023-02-15T20:22:12.840Z,1.83
2023-02-15T20:24:41.774Z,1.98
2023-02-15T20:27:12.176Z,2.09
2023-02-15T20:29:39.816Z,2.15
2023-02-15T20:32:12.116Z,1.99
2023-02-15T20:34:40.253Z,1.76
2023-02-15T20:37:19.101Z,1.83
2023-02-15T20:39:48.697Z,1.75
2023-02-15T20:42:17.180Z,1.77
2023-02-15T20:44:44.923Z,1.88
2023-02-15T20:47:12.557Z,1.87
2023-02-15T20:49:40.573Z,1.80
2023-02-15T20:52:18.611Z,1.91
2023-02-15T20:54:46.370Z,1.83
2023-02-15T20:57:16.554Z,1.92
2023-02-15T20:59:44.283Z,2.06
2023-02-15T21:02:20.125Z,2.08
2023-02-15T21:04:47.931Z,2.01
2023-02-15T21:07:16.604Z,2.09
2023-02-15T21:09:44.344Z,2.02
2023-02-15T21:12:15.330Z,1.95
2023-02-15T21:14:43.400Z,1.83
2023-02-15T21:17:12.611Z,1.81
2023-02-15T21:19:41.288Z,1.93
2023-02-15T21:22:12.125Z,1.94
2023-02-15T21:24:39.917Z,1.90
2023-02-15T21:27:36.885Z,2.00
2023-02-15T21:30:10.966Z,2.05
2023-02-15T21:32:38.732Z,2.06
2023-02-15T21:35:07.414Z,2.15
2023-02-15T21:37:36.541Z,2.05
2023-02-15T21:40:06.994Z,1.98
2023-02-15T21:42:52.059Z,2.05
2023-02-15T21:45:38.865Z,2.09
2023-02-15T21:48:06.764Z,2.09
2023-02-15T21:50:53.751Z,2.24
2023-02-15T21:53:22.760Z,2.04
2023-02-15T21:55:50.546Z,1.98
2023-02-15T21:58:20.740Z,2.11
2023-02-15T22:00:50.305Z,2.26
2023-02-15T22:03:17.968Z,2.12
2023-02-15T22:05:45.724Z,2.02
2023-02-15T22:08:14.142Z,2.19
2023-02-15T22:10:44.873Z,2.26
2023-02-15T22:13:16.042Z,2.29
2023-02-15T22:15:46.608Z,2.17
2023-02-15T22:18:34.141Z,2.07
2023-02-15T22:21:04.630Z,1.97
2023-02-15T22:23:36.677Z,2.00
2023-02-15T22:26:08.023Z,2.04
2023-02-15T22:28:40.253Z,2.03
2023-02-15T22:31:15.683Z,2.05
2023-02-15T22:33:46.741Z,2.02
2023-02-15T22:36:24.901Z,2.21
2023-02-15T22:38:52.639Z,2.19
2023-02-15T22:41:20.611Z,2.25
2023-02-15T22:43:50.255Z,2.01
2023-02-15T22:46:21.218Z,2.15
2023-02-15T22:48:50.503Z,2.17
2023-02-15T22:51:20.991Z,2.27
2023-02-15T22:53:49.595Z,2.21
2023-02-15T22:56:20.120Z,2.17
2023-02-15T22:58:53.162Z,2.06
2023-02-15T23:01:24.635Z,2.00
2023-02-15T23:03:55.325Z,1.98
2023-02-15T23:06:23.116Z,1.98
2023-02-15T23:08:50.893Z,1.91
2023-02-15T23:11:19.946Z,1.97
2023-02-15T23:13:49.945Z,1.97
2023-02-15T23:16:21.207Z,1.94
2023-02-15T23:18:49.412Z,2.01
2023-02-15T23:21:21.697Z,1.97
2023-02-15T23:23:50.805Z,1.91
2023-02-15T23:26:19.756Z,1.99
2023-02-15T23:28:47.737Z,1.92
2023-02-15T23:31:17.418Z,1.94
2023-02-15T23:33:45.696Z,1.90
2023-02-15T23:36:26.190Z,1.87
2023-02-15T23:38:54.047Z,1.90
2023-02-15T23:41:22.934Z,1.94
2023-02-15T23:43:54.980Z,2.09
2023-02-15T23:46:31.202Z,2.07
2023-02-15T23:48:58.681Z,1.86
2023-02-15T23:51:33.370Z,1.80
2023-02-15T23:54:00.860Z,1.91
2023-02-15T23:56:28.293Z,2.00
2023-02-15T23:58:55.778Z,1.95
